createdAt,value
2023-02-05T00:02:00.315Z,3.81
2023-02-05T00:04:17.390Z,3.80
2023-02-05T00:06:34.397Z,3.82
2023-02-05T00:08:51.332Z,3.83
2023-02-05T00:11:08.378Z,3.82
2023-02-05T00:13:27.669Z,3.82
2023-02-05T00:15:44.923Z,3.84
2023-02-05T00:18:02.123Z,3.84
2023-02-05T00:20:19.390Z,3.83
2023-02-05T00:22:36.470Z,3.82
2023-02-05T00:24:53.748Z,3.87
2023-02-05T00:27:10.787Z,3.89
2023-02-05T00:29:28.252Z,3.88
2023-02-05T00:31:45.312Z,3.87
2023-02-05T00:34:02.460Z,3.88
2023-02-05T00:36:19.469Z,3.86
2023-02-05T00:38:36.909Z,3.88
2023-02-05T00:40:54.071Z,3.87
2023-02-05T00:43:11.160Z,3.85
2023-02-05T00:45:29.193Z,3.89
2023-02-05T00:47:48.347Z,3.91
2023-02-05T00:50:05.571Z,3.93
2023-02-05T00:52:23.913Z,3.98
2023-02-05T00:54:41.231Z,3.94
2023-02-05T00:56:58.206Z,3.92
2023-02-05T00:59:15.130Z,3.92
2023-02-05T01:01:33.529Z,3.93
2023-02-05T01:03:55.034Z,3.93
2023-02-05T01:06:12.316Z,3.88
2023-02-05T01:08:29.696Z,3.89
2023-02-05T01:10:46.699Z,3.86
2023-02-05T01:13:03.742Z,3.85
2023-02-05T01:15:23.186Z,3.84
2023-02-05T01:17:40.356Z,3.85
2023-02-05T01:19:57.335Z,3.86
2023-02-05T01:22:14.388Z,3.89
2023-02-05T01:24:32.761Z,3.92
2023-02-05T01:26:51.323Z,3.92
2023-02-05T01:29:08.597Z,3.91
2023-02-05T01:31:26.034Z,3.89
2023-02-05T01:33:43.450Z,3.88
2023-02-05T01:36:01.571Z,3.93
2023-02-05T01:38:18.702Z,3.96
2023-02-05T01:40:35.798Z,3.95
2023-02-05T01:43:02.229Z,3.94
2023-02-05T01:45:19.177Z,3.90
2023-02-05T01:47:36.206Z,3.86
2023-02-05T01:49:59.318Z,3.86
2023-02-05T01:52:16.234Z,3.87
2023-02-05T01:54:33.620Z,3.90
2023-02-05T01:56:51.005Z,3.87
2023-02-05T01:59:10.546Z,3.88
2023-02-05T02:01:27.941Z,3.89
2023-02-05T02:03:45.134Z,3.89
2023-02-05T02:06:03.202Z,3.90
2023-02-05T02:08:20.485Z,3.96
2023-02-05T02:10:37.525Z,3.93
2023-02-05T02:12:57.921Z,3.90
2023-02-05T02:15:16.180Z,3.91
2023-02-05T02:17:34.204Z,3.92
2023-02-05T02:19:54.156Z,3.93
2023-02-05T02:22:11.465Z,3.97
2023-02-05T02:24:31.057Z,3.95
2023-02-05T02:26:48.421Z,3.93
2023-02-05T02:29:06.091Z,3.93
2023-02-05T02:31:24.480Z,3.94
2023-02-05T02:33:41.690Z,4.00
2023-02-05T02:35:58.632Z,4.02
2023-02-05T02:38:15.787Z,4.03
2023-02-05T02:40:32.734Z,4.04
2023-02-05T02:42:51.956Z,4.01
2023-02-05T02:45:10.597Z,4.02
2023-02-05T02:47:27.639Z,3.97
2023-02-05T02:49:44.624Z,3.95
2023-02-05T02:52:01.741Z,3.99
2023-02-05T02:54:18.740Z,4.02
2023-02-05T02:56:35.855Z,4.01
2023-02-05T02:58:54.324Z,4.01
2023-02-05T03:01:11.714Z,3.96
2023-02-05T03:03:34.427Z,3.96
2023-02-05T03:05:51.487Z,4.00
2023-02-05T03:08:11.505Z,4.01
2023-02-05T03:10:37.892Z,4.04
2023-02-05T03:12:58.951Z,4.12
2023-02-05T03:15:16.106Z,4.11
2023-02-05T03:17:33.556Z,4.06
2023-02-05T03:19:53.362Z,4.04
2023-02-05T03:22:10.848Z,4.01
2023-02-05T03:24:27.981Z,3.99
2023-02-05T03:26:44.923Z,4.04
2023-02-05T03:29:01.928Z,4.03
2023-02-05T03:31:18.946Z,4.01
2023-02-05T03:33:36.226Z,4.00
2023-02-05T03:35:53.231Z,4.03
2023-02-05T03:38:10.147Z,4.04
2023-02-05T03:40:27.181Z,4.02
2023-02-05T03:42:44.215Z,4.03
2023-02-05T03:45:02.499Z,4.02
2023-02-05T03:47:19.810Z,4.02
2023-02-05T03:49:37.057Z,4.02
2023-02-05T03:51:54.323Z,4.01
2023-02-05T03:54:11.716Z,4.03
2023-02-05T03:56:28.759Z,4.05
2023-02-05T03:58:45.657Z,4.04
2023-02-05T04:01:02.760Z,4.07
2023-02-05T04:03:20.101Z,4.05
2023-02-05T04:05:38.025Z,4.04
2023-02-05T04:07:56.322Z,4.02
2023-02-05T04:10:13.393Z,4.04
2023-02-05T04:12:30.414Z,4.05
2023-02-05T04:14:47.462Z,4.07
2023-02-05T04:17:04.610Z,4.05
2023-02-05T04:19:21.610Z,4.05
2023-02-05T04:21:38.644Z,4.06
2023-02-05T04:23:55.672Z,4.09
2023-02-05T04:26:12.999Z,4.06
2023-02-05T04:28:31.280Z,4.05
2023-02-05T04:30:48.578Z,4.08
2023-02-05T04:33:06.812Z,4.09
2023-02-05T04:35:24.015Z,4.09
2023-02-05T04:37:41.030Z,4.10
2023-02-05T04:39:58.066Z,4.09
2023-02-05T04:42:15.156Z,4.08
2023-02-05T04:44:32.067Z,4.10
2023-02-05T04:46:49.292Z,4.16
2023-02-05T04:49:06.295Z,4.14
2023-02-05T04:51:24.316Z,4.12
2023-02-05T04:53:42.555Z,4.09
2023-02-05T04:55:59.549Z,4.14
2023-02-05T04:58:17.642Z,4.11
2023-02-05T05:00:34.559Z,4.19
2023-02-05T05:02:51.838Z,4.16
2023-02-05T05:05:08.829Z,4.16
2023-02-05T05:07:25.864Z,4.16
2023-02-05T05:09:42.806Z,4.14
2023-02-05T05:11:59.876Z,4.15
2023-02-05T05:14:17.107Z,4.13
2023-02-05T05:16:34.227Z,4.14
2023-02-05T05:18:51.444Z,4.14
2023-02-05T05:21:08.796Z,4.13
2023-02-05T05:23:25.867Z,4.11
2023-02-05T05:25:44.180Z,4.09
2023-02-05T05:28:01.274Z,4.09
2023-02-05T05:30:18.575Z,4.07
2023-02-05T05:32:35.898Z,4.09
2023-02-05T05:34:53.298Z,4.11
2023-02-05T05:37:10.560Z,4.08
2023-02-05T05:39:27.939Z,4.09
2023-02-05T05:41:44.930Z,4.09
2023-02-05T05:44:02.094Z,4.14
2023-02-05T05:46:19.078Z,4.14
2023-02-05T05:48:36.056Z,4.15
2023-02-05T05:50:53.247Z,4.09
2023-02-05T05:53:10.440Z,4.08
2023-02-05T05:55:28.143Z,4.06
2023-02-05T05:57:45.227Z,4.05
2023-02-05T06:00:02.323Z,4.06
2023-02-05T06:02:20.864Z,4.09
2023-02-05T06:04:38.223Z,4.11
2023-02-05T06:06:55.926Z,4.13
2023-02-05T06:09:13.042Z,4.08
2023-02-05T06:11:31.488Z,4.07
2023-02-05T06:13:49.523Z,4.06
2023-02-05T06:16:06.945Z,4.04
2023-02-05T06:18:24.057Z,4.03
2023-02-05T06:20:41.312Z,4.02
2023-02-05T06:22:59.676Z,4.02
2023-02-05T06:25:18.096Z,4.02
2023-02-05T06:27:35.020Z,4.04
2023-02-05T06:29:52.195Z,4.03
2023-02-05T06:32:09.250Z,4.08
2023-02-05T06:34:26.563Z,4.09
2023-02-05T06:36:43.676Z,4.04
2023-02-05T06:39:01.056Z,4.02
2023-02-05T06:41:18.425Z,4.01
2023-02-05T06:43:35.484Z,4.01
2023-02-05T06:45:52.510Z,4.00
2023-02-05T06:48:09.759Z,4.00
2023-02-05T06:50:27.218Z,4.01
2023-02-05T06:52:45.269Z,4.03
2023-02-05T06:55:02.588Z,4.01
2023-02-05T06:57:19.904Z,4.00
2023-02-05T06:59:36.873Z,3.99
2023-02-05T07:01:54.325Z,4.00
2023-02-05T07:04:12.350Z,4.01
2023-02-05T07:06:29.755Z,4.01
2023-02-05T07:08:47.116Z,4.00
2023-02-05T07:11:05.206Z,3.98
2023-02-05T07:13:23.517Z,3.99
2023-02-05T07:15:41.468Z,3.99
2023-02-05T07:17:58.770Z,3.99
2023-02-05T07:20:16.811Z,3.97
2023-02-05T07:22:34.193Z,3.96
2023-02-05T07:24:52.524Z,3.96
2023-02-05T07:27:09.431Z,3.99
2023-02-05T07:29:26.710Z,4.02
2023-02-05T07:31:44.055Z,4.00
2023-02-05T07:34:01.185Z,4.02
2023-02-05T07:36:19.119Z,4.04
2023-02-05T07:38:38.564Z,4.04
2023-02-05T07:40:56.560Z,4.08
2023-02-05T07:43:14.275Z,4.11
2023-02-05T07:45:31.729Z,4.10
2023-02-05T07:47:49.771Z,4.12
2023-02-05T07:50:07.140Z,4.13
2023-02-05T07:52:24.433Z,4.14
2023-02-05T07:54:41.706Z,4.19
2023-02-05T07:56:58.708Z,4.20
2023-02-05T07:59:15.968Z,4.21
2023-02-05T08:01:33.080Z,4.24
2023-02-05T08:03:51.047Z,4.27
2023-02-05T08:06:08.382Z,4.26
2023-02-05T08:08:25.711Z,4.32
2023-02-05T08:10:43.002Z,4.31
2023-02-05T08:13:01.385Z,4.34
2023-02-05T08:15:18.433Z,4.37
2023-02-05T08:17:35.778Z,4.42
2023-02-05T08:19:55.586Z,4.37
2023-02-05T08:22:13.486Z,4.39
2023-02-05T08:24:30.782Z,4.38
2023-02-05T08:26:50.144Z,4.35
2023-02-05T08:29:07.156Z,4.38
2023-02-05T08:31:24.240Z,4.39
2023-02-05T08:33:41.345Z,4.45
2023-02-05T08:35:58.339Z,4.49
2023-02-05T08:38:15.726Z,4.52
2023-02-05T08:40:33.562Z,4.59
2023-02-05T08:42:50.861Z,4.62
2023-02-05T08:45:08.245Z,4.66
2023-02-05T08:47:25.354Z,4.67
2023-02-05T08:49:43.234Z,4.73
2023-02-05T08:52:00.264Z,4.80
2023-02-05T08:54:17.333Z,4.80
2023-02-05T08:56:34.621Z,4.85
2023-02-05T08:58:53.012Z,4.86
2023-02-05T09:01:10.353Z,4.90
2023-02-05T09:03:27.314Z,4.95
2023-02-05T09:05:44.429Z,4.96
2023-02-05T09:08:01.553Z,4.97
2023-02-05T09:10:18.610Z,4.96
2023-02-05T09:12:35.982Z,4.98
2023-02-05T09:14:53.216Z,4.99
2023-02-05T09:17:10.287Z,4.97
2023-02-05T09:19:27.417Z,4.98
2023-02-05T09:21:44.823Z,5.00
2023-02-05T09:24:02.190Z,5.00
2023-02-05T09:26:19.498Z,5.01
2023-02-05T09:28:36.406Z,5.06
2023-02-05T09:30:53.573Z,5.09
2023-02-05T09:33:10.790Z,5.13
2023-02-05T09:35:27.890Z,5.13
2023-02-05T09:37:44.960Z,5.12
2023-02-05T09:40:20.137Z,5.13
2023-02-05T09:42:38.791Z,5.15
2023-02-05T09:44:55.926Z,5.18
2023-02-05T09:47:13.035Z,5.22
2023-02-05T09:49:31.067Z,5.23
2023-02-05T09:51:48.173Z,5.23
2023-02-05T09:54:06.212Z,5.23
2023-02-05T09:56:23.216Z,5.24
2023-02-05T09:58:40.318Z,5.24
2023-02-05T10:00:57.497Z,5.28
2023-02-05T10:03:14.700Z,5.29
2023-02-05T10:05:32.389Z,5.31
2023-02-05T10:07:49.686Z,5.30
2023-02-05T10:10:08.297Z,5.31
2023-02-05T10:12:26.386Z,5.34
2023-02-05T10:14:43.656Z,5.34
2023-02-05T10:17:01.809Z,5.33
2023-02-05T10:19:18.800Z,5.34
2023-02-05T10:21:36.113Z,5.34
2023-02-05T10:23:53.127Z,5.35
2023-02-05T10:26:10.424Z,5.34
2023-02-05T10:28:28.069Z,5.38
2023-02-05T10:30:45.148Z,5.37
2023-02-05T10:33:02.615Z,5.43
2023-02-05T10:35:19.744Z,5.47
2023-02-05T10:37:37.116Z,5.47
2023-02-05T10:39:55.193Z,5.52
2023-02-05T10:42:13.234Z,5.56
2023-02-05T10:44:32.129Z,5.63
2023-02-05T10:46:49.479Z,5.70
2023-02-05T10:49:06.820Z,5.76
2023-02-05T10:51:24.129Z,5.80
2023-02-05T10:53:41.160Z,5.91
2023-02-05T10:55:59.484Z,5.92
2023-02-05T10:58:16.758Z,5.92
2023-02-05T11:00:33.991Z,5.96
2023-02-05T11:02:51.603Z,6.03
2023-02-05T11:05:08.531Z,6.06
2023-02-05T11:07:26.530Z,6.10
2023-02-05T11:09:43.701Z,6.12
2023-02-05T11:12:00.709Z,6.17
2023-02-05T11:14:17.805Z,6.22
2023-02-05T11:16:34.887Z,6.27
2023-02-05T11:18:52.984Z,6.29
2023-02-05T11:21:12.029Z,6.35
2023-02-05T11:23:30.301Z,6.48
2023-02-05T11:25:47.500Z,6.55
2023-02-05T11:28:05.391Z,6.56
2023-02-05T11:30:47.675Z,6.70
2023-02-05T11:32:59.608Z,6.69
2023-02-05T11:35:16.669Z,6.68
2023-02-05T11:37:34.642Z,6.72
2023-02-05T11:39:51.564Z,6.72
2023-02-05T11:42:10.900Z,6.81
2023-02-05T11:44:30.105Z,6.81
2023-02-05T11:46:49.654Z,6.74
2023-02-05T11:49:08.236Z,6.87
2023-02-05T11:51:26.758Z,6.75
2023-02-05T11:53:45.818Z,6.77
2023-02-05T11:56:03.284Z,6.87
2023-02-05T11:58:28.345Z,6.84
2023-02-05T12:00:49.818Z,6.68
2023-02-05T12:03:06.970Z,6.74
2023-02-05T12:05:24.252Z,6.66
2023-02-05T12:07:41.547Z,6.73
2023-02-05T12:09:58.643Z,6.80
2023-02-05T12:12:17.011Z,6.83
2023-02-05T12:14:34.103Z,6.79
2023-02-05T12:16:52.489Z,6.75
2023-02-05T12:19:10.470Z,6.75
2023-02-05T12:21:28.876Z,6.81
2023-02-05T12:23:45.983Z,6.83
2023-02-05T12:26:02.949Z,6.84
2023-02-05T12:28:20.177Z,6.89
2023-02-05T12:30:38.291Z,6.89
2023-02-05T12:32:55.255Z,6.84
2023-02-05T12:35:12.609Z,6.90
2023-02-05T12:37:29.823Z,6.99
2023-02-05T12:39:47.271Z,6.92
2023-02-05T12:42:04.326Z,6.93
2023-02-05T12:44:22.339Z,7.08
2023-02-05T12:46:39.777Z,7.03
2023-02-05T12:48:58.275Z,6.97
2023-02-05T12:51:16.396Z,6.93
2023-02-05T12:53:33.755Z,7.08
2023-02-05T12:55:50.790Z,7.11
2023-02-05T12:58:09.561Z,7.21
2023-02-05T13:00:27.701Z,7.01
2023-02-05T13:02:44.798Z,7.02
2023-02-05T13:05:02.782Z,6.89
2023-02-05T13:07:19.918Z,6.86
2023-02-05T13:09:38.209Z,6.82
2023-02-05T13:11:55.232Z,6.82
2023-02-05T13:14:13.545Z,6.86
2023-02-05T13:16:30.969Z,7.03
2023-02-05T13:18:49.714Z,6.98
2023-02-05T13:21:06.981Z,6.95
2023-02-05T13:23:24.269Z,6.99
2023-02-05T13:25:41.878Z,6.96
2023-02-05T13:27:59.053Z,7.01
2023-02-05T13:30:16.121Z,7.04
2023-02-05T13:32:33.513Z,7.04
2023-02-05T13:34:50.640Z,7.03
2023-02-05T13:37:10.317Z,7.07
2023-02-05T13:39:34.289Z,6.95
2023-02-05T13:41:51.684Z,7.00
2023-02-05T13:44:08.696Z,6.88
2023-02-05T13:46:25.999Z,6.75
2023-02-05T13:48:43.449Z,6.79
2023-02-05T13:51:03.015Z,6.75
2023-02-05T13:53:21.775Z,6.68
2023-02-05T13:55:40.238Z,6.62
2023-02-05T13:57:57.539Z,6.62
2023-02-05T14:00:16.044Z,6.52
2023-02-05T14:02:33.140Z,6.44
2023-02-05T14:04:50.226Z,6.38
2023-02-05T14:07:07.259Z,6.40
2023-02-05T14:09:24.321Z,6.42
2023-02-05T14:11:41.643Z,6.43
2023-02-05T14:13:58.834Z,6.45
2023-02-05T14:16:16.796Z,6.50
2023-02-05T14:18:34.006Z,6.55
2023-02-05T14:20:52.062Z,6.52
2023-02-05T14:23:09.436Z,6.51
2023-02-05T14:25:26.783Z,6.53
2023-02-05T14:27:44.182Z,6.56
2023-02-05T14:30:01.554Z,6.61
2023-02-05T14:32:18.564Z,6.72
2023-02-05T14:34:35.599Z,6.73
2023-02-05T14:36:53.732Z,6.69
2023-02-05T14:39:11.572Z,6.62
2023-02-05T14:41:28.911Z,6.62
2023-02-05T14:43:46.330Z,6.56
2023-02-05T14:46:03.859Z,6.53
2023-02-05T14:48:21.808Z,6.62
2023-02-05T14:50:39.207Z,6.68
2023-02-05T14:52:56.334Z,6.60
2023-02-05T14:55:13.391Z,6.54
2023-02-05T14:57:31.836Z,6.59
2023-02-05T14:59:48.847Z,6.58
2023-02-05T15:02:06.198Z,6.49
2023-02-05T15:04:23.994Z,6.52
2023-02-05T15:06:41.007Z,6.46
2023-02-05T15:08:58.286Z,6.62
2023-02-05T15:11:15.239Z,6.55
2023-02-05T15:13:32.313Z,6.59
2023-02-05T15:15:49.615Z,6.59
2023-02-05T15:18:07.726Z,6.44
2023-02-05T15:20:24.792Z,6.48
2023-02-05T15:22:42.110Z,6.39
2023-02-05T15:24:59.457Z,6.44
2023-02-05T15:27:16.467Z,6.42
2023-02-05T15:29:33.570Z,6.43
2023-02-05T15:31:50.661Z,6.38
2023-02-05T15:34:08.355Z,6.32
2023-02-05T15:36:25.309Z,6.26
2023-02-05T15:38:42.336Z,6.22
2023-02-05T15:40:59.320Z,6.25
2023-02-05T15:43:17.551Z,6.25
2023-02-05T15:45:35.161Z,6.22
2023-02-05T15:47:52.466Z,6.19
2023-02-05T15:50:09.523Z,6.23
2023-02-05T15:52:26.983Z,6.20
2023-02-05T15:54:45.224Z,6.13
2023-02-05T15:57:02.346Z,6.18
2023-02-05T15:59:19.694Z,6.19
2023-02-05T16:01:36.945Z,6.28
2023-02-05T16:03:54.902Z,6.21
2023-02-05T16:06:12.244Z,6.26
2023-02-05T16:08:29.455Z,6.26
2023-02-05T16:10:46.869Z,6.23
2023-02-05T16:13:04.411Z,6.24
2023-02-05T16:15:21.410Z,6.22
2023-02-05T16:17:38.806Z,6.18
2023-02-05T16:19:55.863Z,6.16
2023-02-05T16:22:12.857Z,6.21
2023-02-05T16:24:30.110Z,6.09
2023-02-05T16:26:47.430Z,6.11
2023-02-05T16:29:11.645Z,6.18
2023-02-05T16:31:37.639Z,6.27
2023-02-05T16:33:54.770Z,6.26
2023-02-05T16:36:11.695Z,6.16
2023-02-05T16:38:29.485Z,6.08
2023-02-05T16:40:46.456Z,6.16
2023-02-05T16:43:03.470Z,6.21
2023-02-05T16:45:20.846Z,6.24
2023-02-05T16:47:37.889Z,6.23
2023-02-05T16:49:56.767Z,6.10
2023-02-05T16:52:14.105Z,6.20
2023-02-05T16:54:31.417Z,6.23
2023-02-05T16:56:48.448Z,6.21
2023-02-05T16:59:05.732Z,6.11
2023-02-05T17:01:23.667Z,6.02
2023-02-05T17:03:41.963Z,5.94
2023-02-05T17:05:59.195Z,5.92
2023-02-05T17:08:16.251Z,6.06
2023-02-05T17:10:33.456Z,6.08
2023-02-05T17:12:50.908Z,5.98
2023-02-05T17:15:08.560Z,5.97
2023-02-05T17:17:25.918Z,6.03
2023-02-05T17:19:42.917Z,5.98
2023-02-05T17:22:00.261Z,5.99
2023-02-05T17:24:17.469Z,6.01
2023-02-05T17:26:34.461Z,6.04
2023-02-05T17:28:52.452Z,6.12
2023-02-05T17:31:09.528Z,5.96
2023-02-05T17:33:26.568Z,6.08
2023-02-05T17:35:43.574Z,6.08
2023-02-05T17:38:00.871Z,6.17
2023-02-05T17:40:17.942Z,6.18
2023-02-05T17:42:35.001Z,6.14
2023-02-05T17:44:52.042Z,6.13
2023-02-05T17:47:09.305Z,6.13
2023-02-05T17:49:26.380Z,6.04
2023-02-05T17:51:43.578Z,6.04
2023-02-05T17:54:00.483Z,6.02
2023-02-05T17:56:17.414Z,5.95
2023-02-05T17:58:34.754Z,5.91
2023-02-05T18:00:51.811Z,5.95
2023-02-05T18:03:09.840Z,5.93
2023-02-05T18:05:26.773Z,5.93
2023-02-05T18:07:44.290Z,5.90
2023-02-05T18:10:01.208Z,5.87
2023-02-05T18:12:19.153Z,5.84
2023-02-05T18:14:37.335Z,5.83
2023-02-05T18:16:54.294Z,5.89
2023-02-05T18:19:11.344Z,5.86
2023-02-05T18:21:28.391Z,5.86
2023-02-05T18:23:45.624Z,5.81
2023-02-05T18:26:02.908Z,5.78
2023-02-05T18:28:20.177Z,5.80
2023-02-05T18:30:38.558Z,5.85
2023-02-05T18:32:56.826Z,5.76
2023-02-05T18:35:13.929Z,5.79
2023-02-05T18:37:30.963Z,5.76
2023-02-05T18:39:47.891Z,5.72
2023-02-05T18:42:05.091Z,5.75
2023-02-05T18:44:23.170Z,5.76
2023-02-05T18:46:40.174Z,5.77
2023-02-05T18:48:57.400Z,5.84
2023-02-05T18:51:15.658Z,5.77
2023-02-05T18:53:33.004Z,5.75
2023-02-05T18:55:50.021Z,5.74
2023-02-05T18:58:06.992Z,5.85
2023-02-05T19:00:24.010Z,5.89
2023-02-05T19:02:41.030Z,5.88
2023-02-05T19:04:58.150Z,5.85
2023-02-05T19:07:16.441Z,5.74
2023-02-05T19:09:33.465Z,5.83
2023-02-05T19:11:50.795Z,5.86
2023-02-05T19:14:07.855Z,5.83
2023-02-05T19:16:24.835Z,5.78
2023-02-05T19:18:41.884Z,5.79
2023-02-05T19:20:58.985Z,5.84
2023-02-05T19:23:16.247Z,5.75
2023-02-05T19:25:33.323Z,5.67
2023-02-05T19:27:50.378Z,5.62
2023-02-05T19:30:07.451Z,5.57
2023-02-05T19:32:25.488Z,5.59
2023-02-05T19:34:42.674Z,5.63
2023-02-05T19:36:59.697Z,5.58
2023-02-05T19:39:17.037Z,5.53
2023-02-05T19:41:34.036Z,5.50
2023-02-05T19:43:52.112Z,5.57
2023-02-05T19:46:09.176Z,5.48
2023-02-05T19:48:26.157Z,5.47
2023-02-05T19:50:43.182Z,5.46
2023-02-05T19:53:00.428Z,5.55
2023-02-05T19:55:17.456Z,5.53
2023-02-05T19:57:34.502Z,5.56
2023-02-05T19:59:51.492Z,5.52
2023-02-05T20:02:08.769Z,5.48
2023-02-05T20:04:25.739Z,5.54
2023-02-05T20:06:43.095Z,5.50
2023-02-05T20:09:00.369Z,5.47
2023-02-05T20:11:17.348Z,5.47
2023-02-05T20:13:34.309Z,5.55
2023-02-05T20:15:51.714Z,5.55
2023-02-05T20:18:08.774Z,5.58
2023-02-05T20:20:33.489Z,5.60
2023-02-05T20:22:50.604Z,5.54
2023-02-05T20:25:07.561Z,5.53
2023-02-05T20:27:25.109Z,5.73
2023-02-05T20:29:42.045Z,5.65
2023-02-05T20:31:59.163Z,5.60
2023-02-05T20:34:17.117Z,5.56
2023-02-05T20:36:34.479Z,5.55
2023-02-05T20:38:51.627Z,5.64
2023-02-05T20:41:08.662Z,5.57
2023-02-05T20:43:25.733Z,5.53
2023-02-05T20:45:42.697Z,5.53
2023-02-05T20:47:59.607Z,5.53
2023-02-05T20:50:16.689Z,5.56
2023-02-05T20:52:33.770Z,5.59
2023-02-05T20:54:51.033Z,5.62
2023-02-05T20:57:08.318Z,5.49
2023-02-05T20:59:26.295Z,5.44
2023-02-05T21:01:43.591Z,5.43
2023-02-05T21:04:00.599Z,5.43
2023-02-05T21:06:17.588Z,5.46
2023-02-05T21:08:34.539Z,5.41
2023-02-05T21:10:51.898Z,5.42
2023-02-05T21:13:09.212Z,5.38
2023-02-05T21:15:26.226Z,5.36
2023-02-05T21:17:43.490Z,5.36
2023-02-05T21:20:00.550Z,5.38
2023-02-05T21:22:18.792Z,5.40
2023-02-05T21:24:36.095Z,5.41
2023-02-05T21:26:53.167Z,5.37
2023-02-05T21:29:10.284Z,5.36
2023-02-05T21:31:28.180Z,5.35
2023-02-05T21:33:45.495Z,5.37
2023-02-05T21:36:02.438Z,5.35
2023-02-05T21:38:19.725Z,5.44
2023-02-05T21:40:36.929Z,5.41
2023-02-05T21:42:53.942Z,5.40
2023-02-05T21:45:10.924Z,5.38
2023-02-05T21:47:27.890Z,5.40
2023-02-05T21:49:44.852Z,5.36
2023-02-05T21:52:02.211Z,5.35
2023-02-05T21:54:20.469Z,5.39
2023-02-05T21:56:37.369Z,5.38
2023-02-05T21:58:54.388Z,5.35
2023-02-05T22:01:11.597Z,5.33
2023-02-05T22:03:28.663Z,5.35
2023-02-05T22:05:46.725Z,5.37
2023-02-05T22:08:03.694Z,5.35
2023-02-05T22:10:21.001Z,5.35
2023-02-05T22:12:38.242Z,5.35
2023-02-05T22:14:55.539Z,5.37
2023-02-05T22:17:12.783Z,5.36
2023-02-05T22:19:31.014Z,5.48
2023-02-05T22:21:48.047Z,5.45
2023-02-05T22:24:05.027Z,5.41
2023-02-05T22:26:22.130Z,5.38
2023-02-05T22:28:39.118Z,5.39
2023-02-05T22:30:56.078Z,5.42
2023-02-05T22:33:13.086Z,5.42
2023-02-05T22:35:30.087Z,5.43
2023-02-05T22:37:47.294Z,5.48
2023-02-05T22:40:04.289Z,5.42
2023-02-05T22:42:21.367Z,5.41
2023-02-05T22:44:38.382Z,5.44
2023-02-05T22:46:56.377Z,5.47
2023-02-05T22:49:13.374Z,5.49
2023-02-05T22:51:30.454Z,5.51
2023-02-05T22:53:47.690Z,5.50
2023-02-05T22:56:04.717Z,5.59
2023-02-05T22:58:21.975Z,5.53
2023-02-05T23:00:38.943Z,5.55
2023-02-05T23:02:55.933Z,5.46
2023-02-05T23:05:13.177Z,5.44
2023-02-05T23:07:30.478Z,5.45
2023-02-05T23:09:47.762Z,5.43
2023-02-05T23:12:04.719Z,5.45
2023-02-05T23:14:21.777Z,5.40
2023-02-05T23:16:38.757Z,5.38
2023-02-05T23:18:55.732Z,5.37
2023-02-05T23:21:13.988Z,5.37
2023-02-05T23:23:30.964Z,5.45
2023-02-05T23:25:47.994Z,5.42
2023-02-05T23:28:05.343Z,5.41
2023-02-05T23:30:22.328Z,5.43
2023-02-05T23:32:39.597Z,5.41
2023-02-05T23:34:56.671Z,5.33
2023-02-05T23:37:13.650Z,5.31
2023-02-05T23:39:30.847Z,5.30
2023-02-05T23:41:48.058Z,5.29
2023-02-05T23:44:05.255Z,5.27
2023-02-05T23:46:22.351Z,5.25
2023-02-05T23:48:39.384Z,5.26
2023-02-05T23:50:56.330Z,5.26
2023-02-05T23:53:13.380Z,5.26
2023-02-05T23:55:30.688Z,5.26
2023-02-05T23:57:47.649Z,5.24
